Latest Weather Observations for Sheffield

IDT60801

Issued at 2:31 pm EDT Wednesday 22 February 2017 (issued every 30 minutes, with the page automatically refreshed every 10 minutes)

About weather observations | Map of weather stations | Latest weather observations for TAS | Other Formats
Station Details ID: 091291 Name: SHEFFIELD SCHOOL FARM Lat: -41.39 Lon: 146.32 Height: 294.2 m
Data from the previous 72 hours. | See also: Recent months at Sheffield
Date/Time
EDT
Temp
°C
App
Temp
°C
Dew
Point
°C
Rel
Hum
%
Delta-T
°C
Wind Press
QNH
hPa
Press
MSL
hPa
Rain since
9am
mm
Dir  Spd
km/h
Gust
km/h
Spd
kts
Gust
kts
22/02:30pm 20.7 17.7 10.8 53 5.5 N 17 24 9 13 1015.6 1015.0 0.0
22/02:00pm 20.8 18.6 10.9 53 5.5 N 13 22 7 12 1016.0 1015.4 0.0
22/01:30pm 20.9 19.1 10.7 52 5.7 NNE 11 19 6 10 1016.5 1015.9 0.0
22/01:00pm 19.8 18.6 10.2 54 5.2 ENE 7 17 4 9 1016.7 1016.1 0.0
22/12:30pm 19.2 18.1 10.5 57 4.8 NNE 7 20 4 11 1017.2 1016.6 0.0
22/12:00pm 17.9 16.8 10.5 62 4.0 N 7 13 4 7 1017.5 1016.9 0.0
22/11:30am 17.2 15.8 10.8 66 3.5 N 9 17 5 9 1017.7 1017.1 0.0
22/11:00am 16.0 14.6 9.4 65 3.5 NNE 7 17 4 9 1018.1 1017.5 0.0
22/10:30am 15.3 13.9 9.4 68 3.1 NNE 7 13 4 7 1018.3 1017.8 0.0
22/10:00am 14.5 14.0 10.7 78 2.0 SE 4 6 2 3 1018.6 1018.1 0.0
22/09:30am 13.5 12.7 11.0 85 1.3 SSE 6 7 3 4 1018.6 1018.1 0.0
22/09:00am 13.2 12.8 11.1 87 1.1 SE 4 7 2 4 1018.6 1018.1 0.0
22/08:30am 12.5 12.2 11.6 94 0.5 SE 4 7 2 4 1018.4 1017.9 0.0
22/08:00am 11.0 10.3 10.2 95 0.4 SE 4 4 2 2 1018.4 1017.9 0.0
22/07:30am 11.1 10.9 10.5 96 0.3 SE 2 4 1 2 1018.4 1017.9 0.0
22/07:00am 10.9 9.9 10.3 96 0.3 SSE 6 6 3 3 1018.2 1017.6 0.0
22/06:30am 10.6 9.8 9.8 95 0.4 SE 4 6 2 3 1018.0 1017.4 0.0
22/06:00am 11.0 10.4 10.4 96 0.3 SE 4 6 2 3 1018.0 1017.4 0.0
22/05:30am 10.7 9.6 10.1 96 0.3 SSE 6 7 3 4 1017.8 1017.2 0.0
22/05:00am 11.1 11.3 10.5 96 0.3 CALM 0 0 0 0 1017.9 1017.3 0.0
22/04:30am 10.9 10.7 10.4 97 0.3 ENE 2 2 1 1 1018.1 1017.5 0.0
22/04:00am 9.9 8.6 9.3 96 0.3 SE 6 7 3 4 1018.2 1017.6 0.0
22/03:30am 9.9 8.6 9.3 96 0.3 ESE 6 7 3 4 1018.1 1017.5 0.0
22/03:00am 9.7 7.8 8.9 95 0.4 SE 9 9 5 5 1018.3 1017.8 0.0
22/02:30am 9.9 8.0 9.0 94 0.5 SE 9 11 5 6 1018.5 1018.0 0.0
22/02:00am 9.8 7.5 8.9 94 0.4 SE 11 13 6 7 1018.6 1018.1 0.0
22/01:30am 10.1 7.9 9.2 94 0.5 SE 11 13 6 7 1018.7 1018.2 0.0
22/01:00am 9.6 7.6 8.5 93 0.5 ESE 9 11 5 6 1018.8 1018.3 0.0
22/12:30am 10.8 9.5 9.1 89 0.9 ESE 6 7 3 4 1018.8 1018.3 0.0
22/12:00am 11.3 9.2 9.9 91 0.7 SSE 11 13 6 7 1018.6 1018.1 0.0
 
Date/Time
EDT
Temp
°C
App
Temp
°C
Dew
Point
°C
Rel
Hum
%
Delta-T
°C
Wind Press
QNH
hPa
Press
MSL
hPa
Rain since
9am
mm
Dir  Spd
km/h
Gust
km/h
Spd
kts
Gust
kts
21/11:30pm 11.4 9.0 10.0 91 0.7 SE 13 15 7 8 1018.9 1018.4 0.0
21/11:00pm 11.1 8.9 9.4 89 0.9 ESE 11 13 6 7 1018.9 1018.4 0.0
21/10:30pm 11.7 10.0 9.8 88 1.0 SE 9 13 5 7 1018.8 1018.3 0.0
21/10:00pm 11.6 9.3 9.0 84 1.3 SE 11 13 6 7 1018.5 1018.0 0.0
21/09:30pm 12.6 10.7 9.1 79 1.8 ESE 9 11 5 6 1018.4 1017.9 0.0
21/09:00pm 13.3 11.8 9.0 75 2.2 ESE 7 9 4 5 1018.1 1017.5 0.0
21/08:30pm 14.9 13.6 9.3 69 2.9 ENE 6 7 3 4 1017.9 1017.3 0.0
21/08:00pm 15.6 13.7 9.1 65 3.4 NNW 9 13 5 7 1017.6 1017.0 0.0
21/07:30pm 17.1 14.4 8.8 58 4.3 N 13 20 7 11 1017.1 1016.5 0.0
21/07:00pm 18.3 15.6 9.1 55 4.9 N 13 20 7 11 1016.7 1016.1 0.0
21/06:30pm 19.1 15.7 9.0 52 5.4 N 17 20 9 11 1016.4 1015.8 0.0
21/06:00pm 20.3 16.7 8.3 46 6.3 N 17 22 9 12 1016.1 1015.5 0.0
21/05:30pm 20.6 17.1 7.2 42 6.9 N 15 24 8 13 1016.3 1015.7 0.0
21/05:00pm 20.8 16.7 7.8 43 6.8 N 19 24 10 13 1016.5 1015.9 0.0
21/04:30pm 20.8 16.4 6.7 40 7.3 N 19 24 10 13 1016.4 1015.8 0.0
21/04:00pm 20.6 16.3 6.9 41 7.1 N 19 28 10 15 1016.4 1015.8 0.0
21/03:30pm 20.7 17.3 7.7 43 6.8 N 15 20 8 11 1016.6 1016.0 0.0
21/03:00pm 21.0 17.2 5.8 37 7.7 NNW 15 22 8 12 1016.9 1016.3 0.0
21/02:30pm 20.1 16.8 6.5 41 6.9 NW 13 17 7 9 1017.1 1016.5 0.0
21/02:00pm 20.6 18.0 6.2 39 7.3 NNW 9 19 5 10 1017.3 1016.7 0.0
21/01:30pm 19.6 16.1 5.3 39 7.1 W 13 24 7 13 1017.4 1016.8 0.0
21/01:00pm 18.8 16.0 3.0 35 7.4 WNW 7 15 4 8 1017.7 1017.1 0.0
21/12:30pm 18.1 15.4 3.9 39 6.8 NW 7 17 4 9 1017.8 1017.2 0.0
21/12:00pm 18.4 15.2 4.9 41 6.6 WSW 11 19 6 10 1018.0 1017.4 0.0
21/11:30am 17.2 14.0 5.2 45 5.8 WSW 11 20 6 11 1018.2 1017.6 0.0
21/11:00am 16.4 14.4 4.4 45 5.7 W 4 11 2 6 1018.3 1017.8 0.0
21/10:30am 16.1 13.7 4.2 45 5.6 NE 6 9 3 5 1018.3 1017.8 0.0
21/10:00am 15.1 12.6 3.6 46 5.3 NNE 6 11 3 6 1018.1 1017.5 0.0
21/09:30am 14.4 11.7 3.8 49 4.9 NE 7 11 4 6 1017.9 1017.3 0.0
21/09:00am 13.5 11.1 4.4 54 4.2 SSE 6 9 3 5 1017.6 1017.0 0.0
21/08:30am 12.8 10.8 4.5 57 3.9 SSE 4 9 2 5 1017.5 1016.9 0.0
21/08:00am 11.0 8.4 4.2 63 3.1 SSW 7 13 4 7 1017.1 1016.5 0.0
21/07:30am 10.0 6.2 3.7 65 2.8 W 13 20 7 11 1016.6 1016.0 0.0
21/07:00am 7.3 5.1 3.5 77 1.6 S 4 9 2 5 1016.1 1015.5 0.0
21/06:30am 8.6 6.2 4.2 74 2.0 WSW 6 9 3 5 1015.8 1015.2 0.0
21/06:00am 8.6 6.0 4.4 75 1.9 WSW 7 9 4 5 1015.3 1014.7 0.0
21/05:30am 8.3 5.9 5.1 80 1.5 WSW 7 11 4 6 1014.8 1014.2 0.0
21/05:00am 8.7 6.8 4.9 77 1.7 WNW 4 6 2 3 1014.5 1013.9 0.0
21/04:30am 9.8 7.5 5.0 72 2.2 W 6 7 3 4 1014.4 1013.8 0.0
21/04:00am 10.7 8.4 5.7 71 2.3 SW 7 11 4 6 1014.3 1013.7 0.0
21/03:30am 10.4 8.3 5.8 73 2.2 WSW 6 9 3 5 1013.9 1013.3 0.0
21/03:00am 10.6 9.0 6.4 75 2.0 WNW 4 6 2 3 1013.7 1013.1 0.0
21/02:30am 11.2 9.1 6.5 73 2.3 W 7 11 4 6 1013.3 1012.7 0.0
21/02:00am 9.9 8.8 6.8 81 1.5 WNW 2 6 1 3 1013.2 1012.6 0.0
21/01:30am 9.0 7.0 4.4 73 2.1 SW 4 6 2 3 1013.2 1012.6 0.0
21/01:00am 11.2 9.7 6.9 75 2.1 W 4 7 2 4 1013.2 1012.6 0.0
21/12:30am 10.8 9.5 6.0 72 2.3 SW 2 7 1 4 1013.1 1012.5 0.0
21/12:00am 11.7 9.3 6.8 72 2.4 W 9 20 5 11 1013.1 1012.5 0.0
 
Date/Time
EDT
Temp
°C
App
Temp
°C
Dew
Point
°C
Rel
Hum
%
Delta-T
°C
Wind Press
QNH
hPa
Press
MSL
hPa
Rain since
9am
mm
Dir  Spd
km/h
Gust
km/h
Spd
kts
Gust
kts
20/11:30pm 11.5 8.9 6.2 70 2.5 WSW 9 13 5 7 1012.9 1012.3 0.0
20/11:00pm 12.1 10.5 6.2 67 2.8 SW 4 7 2 4 1012.5 1011.9 0.0
20/10:30pm 12.7 9.0 6.3 65 3.1 WSW 15 28 8 15 1012.3 1011.6 0.0
20/10:00pm 12.5 9.9 6.3 66 3.0 W 9 15 5 8 1012.2 1011.5 0.0
20/09:30pm 13.4 8.9 6.3 62 3.4 SW 19 30 10 16 1011.7 1011.1 0.0
20/09:00pm 13.9 8.9 6.5 61 3.6 SW 22 30 12 16 1011.3 1010.7 0.0
20/08:30pm 14.1 10.4 6.5 60 3.7 SW 15 20 8 11 1010.7 1010.1 0.0
20/08:00pm 14.8 10.4 6.6 58 4.0 WSW 19 26 10 14 1010.1 1009.5 0.0
20/07:30pm 16.9 12.5 6.7 51 5.1 W 19 26 10 14 1009.6 1009.0 0.0
20/07:00pm 19.0 16.5 3.6 36 7.4 SSW 6 11 3 6 1009.1 1008.4 0.0
20/06:30pm 18.9 16.5 4.3 38 7.1 SSE 6 13 3 7 1008.8 1008.1 0.0
20/06:00pm 17.8 15.2 4.4 41 6.5 SE 7 11 4 6 1008.5 1007.8 0.0
20/05:30pm 18.7 16.1 6.2 44 6.3 ENE 9 17 5 9 1007.9 1007.3 0.0
20/05:00pm 17.4 13.3 6.3 48 5.6 SE 17 22 9 12 1007.7 1007.1 0.0
20/04:30pm 17.8 15.9 5.1 43 6.2 NNE 4 9 2 5 1007.6 1007.0 0.0
20/04:00pm 18.0 15.6 6.8 48 5.7 NNW 9 17 5 9 1007.3 1006.7 0.0
20/03:30pm 16.8 14.6 5.1 46 5.7 N 6 11 3 6 1007.1 1006.5 0.0
20/03:00pm 17.3 14.7 3.2 39 6.6 E 6 11 3 6 1007.2 1006.6 0.0
20/02:30pm 17.5 13.7 3.8 40 6.5 SE 13 17 7 9 1007.1 1006.5 0.0
20/02:00pm 18.4 15.7 3.5 37 7.1 SSE 7 15 4 8 1007.0 1006.4 0.0
20/01:30pm 16.9 14.7 3.6 41 6.3 ESE 4 6 2 3 1007.0 1006.4 0.0
20/01:00pm 16.9 14.9 4.3 43 6.0 ESE 4 9 2 5 1007.2 1006.6 0.0
20/12:30pm 17.3 15.2 6.5 49 5.4 WNW 7 15 4 8 1007.1 1006.5 0.0
20/12:00pm 15.8 13.2 4.2 46 5.5 NW 7 13 4 7 1007.5 1006.9 0.0
20/11:30am 14.8 11.4 4.2 49 5.0 WNW 11 15 6 8 1007.6 1007.0 0.0
20/11:00am 14.5 12.3 5.3 54 4.4 NW 6 11 3 6 1007.7 1007.1 0.0
20/10:30am 13.1 11.5 6.5 64 3.2 NW 4 7 2 4 1007.9 1007.3 0.0
20/10:00am 12.6 11.5 6.9 68 2.8 NNW 2 6 1 3 1007.7 1007.1 0.0
20/09:30am 10.4 8.8 6.2 75 2.0 NNW 4 6 2 3 1007.5 1006.9 0.0
20/09:00am 9.7 8.1 6.2 79 1.7 NNW 4 7 2 4 1007.1 1006.5 1.6
20/08:30am 7.9 5.6 5.9 87 0.9 NNW 7 9 4 5 1007.0 1006.4 1.6
20/08:00am 5.5 3.1 4.3 92 0.5 NNW 6 7 3 4 1006.9 1006.3 1.6
20/07:30am 4.4 1.8 3.1 91 0.5 WNW 6 9 3 5 1006.7 1006.1 1.6
20/07:00am 4.7 3.3 3.5 92 0.5 CALM 0 0 0 0 1006.7 1006.1 1.6
20/06:30am 4.3 2.8 3.1 92 0.5 CALM 0 6 0 3 1006.6 1006.0 1.6
20/06:00am 5.3 2.9 4.3 93 0.4 SW 6 6 3 3 1006.3 1005.6 1.6
20/05:30am 5.1 2.5 4.4 95 0.3 WSW 7 9 4 5 1006.0 1005.3 1.6
20/05:00am 4.9 2.9 4.2 95 0.3 WSW 4 4 2 2 1005.9 1005.2 1.6
20/04:30am 5.0 2.6 4.4 96 0.3 WSW 6 7 3 4 1005.9 1005.2 1.6
20/04:00am 4.7 3.0 4.1 96 0.3 SW 2 4 1 2 1005.8 1005.1 1.6
20/03:30am 5.4 4.2 4.8 96 0.3 CALM 0 0 0 0 1005.7 1005.0 1.6
20/03:00am 5.8 4.7 5.2 96 0.3 CALM 0 0 0 0 1005.7 1005.0 1.6
20/02:30am 5.5 4.3 4.8 95 0.3 CALM 0 0 0 0 1005.8 1005.1 1.6
20/02:00am 5.7 4.6 5.0 95 0.3 CALM 0 0 0 0 1005.8 1005.1 1.6
20/01:30am 5.0 3.7 4.1 94 0.4 CALM 0 0 0 0 1005.8 1005.1 1.6
20/01:00am 5.8 3.5 4.9 94 0.4 W 6 6 3 3 1005.7 1005.0 1.6
20/12:30am 6.7 5.4 5.8 94 0.4 SSE 2 4 1 2 1005.9 1005.2 1.6
20/12:00am 6.4 4.2 5.4 93 0.5 SW 6 7 3 4 1005.7 1005.0 1.6
 
Date/Time
EDT
Temp
°C
App
Temp
°C
Dew
Point
°C
Rel
Hum
%
Delta-T
°C
Wind Press
QNH
hPa
Press
MSL
hPa
Rain since
9am
mm
Dir  Spd
km/h
Gust
km/h
Spd
kts
Gust
kts
19/11:30pm 6.6 5.2 5.6 93 0.5 SSE 2 4 1 2 1006.1 1005.4 1.6
19/11:00pm 6.9 5.1 5.5 91 0.6 S 4 6 2 3 1006.3 1005.6 1.6
19/10:30pm 7.0 5.9 5.2 88 0.8 CALM 0 2 0 1 1006.3 1005.6 1.6
19/10:00pm 8.5 7.2 6.1 85 1.1 S 2 6 1 3 1006.2 1005.5 1.6
19/09:30pm 8.3 7.0 5.8 84 1.2 SSE 2 2 1 1 1006.1 1005.4 1.6
19/09:00pm 9.1 7.3 5.5 78 1.7 SW 4 4 2 2 1005.7 1005.0 1.6
19/08:30pm 9.3 7.4 4.9 74 2.0 NNW 4 6 2 3 1005.2 1004.5 1.6
19/08:00pm 9.7 7.4 4.9 72 2.2 NE 6 7 3 4 1004.7 1004.1 1.6
19/07:30pm 10.4 7.5 4.8 68 2.6 NNE 9 13 5 7 1004.4 1003.8 1.6
19/07:00pm 11.3 8.5 5.0 65 2.9 N 9 13 5 7 1003.9 1003.3 1.6
19/06:30pm 12.7 10.1 4.4 57 3.8 NNE 7 11 4 6 1003.7 1003.1 1.6
19/06:00pm 11.9 8.2 4.6 61 3.4 NNE 13 19 7 10 1003.5 1002.8 1.6
19/05:30pm 12.8 9.0 4.0 55 4.0 NNE 13 17 7 9 1003.2 1002.5 1.6
19/05:00pm 13.6 9.5 4.5 54 4.3 NNW 15 20 8 11 1003.1 1002.4 1.6
19/04:30pm 12.6 8.5 4.6 58 3.7 N 15 24 8 13 1003.1 1002.4 1.6
19/04:00pm 13.0 9.0 4.9 58 3.8 N 15 24 8 13 1003.2 1002.5 1.6
19/03:30pm 14.2 10.2 4.8 53 4.4 N 15 22 8 12 1003.3 1002.6 1.6
19/03:00pm 12.3 8.4 5.5 63 3.2 NNW 15 20 8 11 1003.5 1002.8 1.6

Other Formats:

Comma delimited format used in spreadsheet applications
http://www.bom.gov.au/fwo/IDT60801/IDT60801.94955.axf

JavaScript Object Notation format (JSON) in row-major order
http://www.bom.gov.au/fwo/IDT60801/IDT60801.94955.json